Calwa, California
Current Conditions -  °F | °C
As of 6:53 PM on Saturday 25 Oct 2014 (Local Time) from KFAT Reporting Station
Broken Clouds Broken Clouds  
Wind Chill: 67°   Ceiling: 11000
Heat Index: 67°   Visibility: 10mi
Dew Point: 52°   Wind: 10mph
Humidity: 59%   Direction: 330°NNW
Pressure: 30.05"   Gusts: NA
Location:  36.7109°N, 119.757°W
Report Text: KFAT 260153Z 33009KT 10SM FEW060 SCT090 BKN110 19/11 A3005 RMK AO2 SLP173 T01940111
Loading
Personal Weather Stations






























Interactive Weather Map
Tropical Storm Tracking
New forecast layout! Learn more

10-Day Weather Forecast

Advertisements
Track Severe Weather on mobile